createdAt,value
2017-03-25T00:00:11.329Z,1013.18
2017-03-25T00:00:33.165Z,1013.42
2017-03-25T00:00:54.932Z,1013.37
2017-03-25T00:01:16.691Z,1013.30
2017-03-25T00:01:38.470Z,1013.39
2017-03-25T00:02:00.249Z,1013.46
2017-03-25T00:02:22.079Z,1013.62
2017-03-25T00:02:48.702Z,1013.39
2017-03-25T00:03:10.466Z,1013.39
2017-03-25T00:03:32.252Z,1013.61
2017-03-25T00:03:54.147Z,1013.36
2017-03-25T00:04:16.043Z,1013.55
2017-03-25T00:04:40.612Z,1013.52
2017-03-25T00:05:02.424Z,1013.40
2017-03-25T00:05:24.222Z,1013.40
2017-03-25T00:05:46.008Z,1013.61
2017-03-25T00:06:07.800Z,1013.58
2017-03-25T00:06:29.580Z,1013.54
2017-03-25T00:06:51.422Z,1013.50
2017-03-25T00:07:13.226Z,1013.46
2017-03-25T00:07:37.876Z,1013.54
2017-03-25T00:07:59.809Z,1013.46
2017-03-25T00:08:21.768Z,1013.33
2017-03-25T00:08:43.531Z,1013.39
2017-03-25T00:09:08.215Z,1013.65
2017-03-25T00:09:29.999Z,1013.49
2017-03-25T00:09:51.855Z,1013.88
2017-03-25T00:10:13.661Z,1013.79
2017-03-25T00:10:35.486Z,1013.22
2017-03-25T00:11:00.042Z,1013.78
2017-03-25T00:11:21.881Z,1013.58
2017-03-25T00:11:43.630Z,1013.40
2017-03-25T00:12:05.658Z,1013.36
2017-03-25T00:12:27.435Z,1013.25
2017-03-25T00:12:49.297Z,1013.23
2017-03-25T00:13:11.101Z,1013.36
2017-03-25T00:13:35.993Z,1013.26
2017-03-25T00:13:57.722Z,1013.49
2017-03-25T00:14:19.512Z,1013.29
2017-03-25T00:14:41.282Z,1013.30
2017-03-25T00:15:02.987Z,1013.39
2017-03-25T00:15:24.752Z,1013.67
2017-03-25T00:15:46.500Z,1013.30
2017-03-25T00:16:08.329Z,1013.57
2017-03-25T00:16:30.153Z,1013.59
2017-03-25T00:16:51.850Z,1013.23
2017-03-25T00:17:13.584Z,1013.25
2017-03-25T00:17:35.313Z,1013.36
2017-03-25T00:17:57.204Z,1013.31
2017-03-25T00:18:19.222Z,1013.34
2017-03-25T00:19:52.818Z,1013.29
2017-03-25T00:21:36.243Z,1013.81
2017-03-25T00:22:02.839Z,1013.67
2017-03-25T00:22:34.706Z,1013.43
2017-03-25T00:23:04.884Z,1013.05
2017-03-25T00:23:33.713Z,1013.28
2017-03-25T00:24:00.487Z,1013.30
2017-03-25T00:25:40.999Z,1013.45
2017-03-25T00:26:02.762Z,1013.41
2017-03-25T00:26:24.511Z,1013.35
2017-03-25T00:26:46.449Z,1013.37
2017-03-25T00:27:08.210Z,1013.54
2017-03-25T00:27:29.968Z,1013.42
2017-03-25T00:27:51.807Z,1013.51
2017-03-25T00:28:13.597Z,1013.67
2017-03-25T00:29:12.021Z,1013.71
2017-03-25T00:29:39.526Z,1013.61
2017-03-25T00:30:01.291Z,1013.45
2017-03-25T00:30:23.027Z,1013.36
2017-03-25T00:30:44.808Z,1013.48
2017-03-25T00:31:14.025Z,1013.99
2017-03-25T00:31:40.683Z,1013.52
2017-03-25T00:32:02.729Z,1013.37
2017-03-25T00:32:29.332Z,1013.14
2017-03-25T00:33:25.476Z,1013.30
2017-03-25T00:34:18.922Z,1013.35
2017-03-25T00:35:13.098Z,1013.34
2017-03-25T00:35:35.170Z,1013.48
2017-03-25T00:35:57.121Z,1013.53
2017-03-25T00:36:18.871Z,1013.19
2017-03-25T00:36:50.226Z,1013.22
2017-03-25T00:37:48.750Z,1013.52
2017-03-25T00:38:13.316Z,1013.16
2017-03-25T00:38:35.104Z,1013.39
2017-03-25T00:39:37.665Z,1013.32
2017-03-25T00:39:59.438Z,1013.30
2017-03-25T00:40:21.313Z,1013.48
2017-03-25T00:40:43.430Z,1013.40
2017-03-25T00:41:05.172Z,1013.42
2017-03-25T00:41:26.884Z,1013.47
2017-03-25T00:41:48.588Z,1013.62
2017-03-25T00:42:10.327Z,1013.85
2017-03-25T00:42:32.076Z,1013.76
2017-03-25T00:43:34.593Z,1013.61
2017-03-25T00:43:56.294Z,1013.41
2017-03-25T00:44:17.997Z,1013.28
2017-03-25T00:44:39.715Z,1013.21
2017-03-25T00:45:32.680Z,1013.19
2017-03-25T00:45:54.401Z,1013.19
2017-03-25T00:46:16.129Z,1013.46
2017-03-25T00:46:37.871Z,1013.33
2017-03-25T00:46:59.589Z,1012.93
2017-03-25T00:47:21.318Z,1012.93
2017-03-25T00:47:43.120Z,1013.06
2017-03-25T00:48:04.856Z,1013.20
2017-03-25T00:48:26.596Z,1013.12
2017-03-25T00:48:51.363Z,1013.04
2017-03-25T00:49:44.334Z,1013.41
2017-03-25T00:50:42.054Z,1013.50
2017-03-25T00:51:03.804Z,1013.40
2017-03-25T00:51:25.534Z,1012.91
2017-03-25T00:51:47.266Z,1013.11
2017-03-25T00:52:09.021Z,1013.10
2017-03-25T00:52:30.771Z,1013.21
2017-03-25T00:52:52.496Z,1013.11
2017-03-25T00:53:14.274Z,1013.33
2017-03-25T00:53:35.986Z,1013.03
2017-03-25T00:53:57.715Z,1013.22
2017-03-25T00:54:19.459Z,1013.37
2017-03-25T00:54:41.179Z,1013.24
2017-03-25T00:55:02.899Z,1013.15
2017-03-25T00:55:24.610Z,1012.99
2017-03-25T00:55:46.315Z,1013.07
2017-03-25T00:56:08.006Z,1013.07
2017-03-25T00:56:29.731Z,1013.15
2017-03-25T00:56:51.450Z,1013.10
2017-03-25T00:57:13.175Z,1013.17
2017-03-25T00:57:39.683Z,1012.94
2017-03-25T00:58:01.407Z,1013.03
2017-03-25T00:58:27.903Z,1012.86
2017-03-25T00:58:49.654Z,1012.93
2017-03-25T00:59:16.137Z,1013.02
2017-03-25T00:59:37.883Z,1012.90
2017-03-25T01:00:04.369Z,1013.18
2017-03-25T01:00:26.090Z,1013.08
2017-03-25T01:00:47.810Z,1013.04
2017-03-25T01:01:14.345Z,1013.34
2017-03-25T01:01:36.069Z,1013.24
2017-03-25T01:02:29.111Z,1012.96
2017-03-25T01:02:50.812Z,1012.93
2017-03-25T01:03:12.504Z,1012.71
2017-03-25T01:03:34.190Z,1012.85
2017-03-25T01:03:55.888Z,1012.85
2017-03-25T01:04:17.604Z,1012.89
2017-03-25T01:05:15.961Z,1012.98
2017-03-25T01:06:08.936Z,1012.85
2017-03-25T01:06:30.643Z,1012.81
2017-03-25T01:06:52.353Z,1013.05
2017-03-25T01:07:14.083Z,1012.84
2017-03-25T01:07:35.833Z,1012.86
2017-03-25T01:07:57.567Z,1012.99
2017-03-25T01:08:19.286Z,1013.06
2017-03-25T01:08:41.016Z,1012.89
2017-03-25T01:09:02.764Z,1012.67
2017-03-25T01:09:24.504Z,1012.93
2017-03-25T01:09:51.011Z,1012.83
2017-03-25T01:10:12.755Z,1012.91
2017-03-25T01:10:39.321Z,1012.91
2017-03-25T01:11:01.040Z,1012.89
2017-03-25T01:11:22.764Z,1012.80
2017-03-25T01:12:25.273Z,1013.03
2017-03-25T01:12:46.988Z,1013.08
2017-03-25T01:13:45.339Z,1012.98
2017-03-25T01:14:43.103Z,1012.97
2017-03-25T01:15:04.847Z,1013.05
2017-03-25T01:15:31.334Z,1013.09
2017-03-25T01:15:53.202Z,1013.07
2017-03-25T01:16:51.529Z,1012.85
2017-03-25T01:17:13.225Z,1013.00
2017-03-25T01:17:34.921Z,1013.18
2017-03-25T01:17:56.614Z,1012.92
2017-03-25T01:18:20.547Z,1013.41
2017-03-25T01:18:42.267Z,1013.31
2017-03-25T01:19:08.756Z,1013.06
2017-03-25T01:19:40.574Z,1013.03
2017-03-25T01:20:02.272Z,1013.00
2017-03-25T01:20:24.003Z,1012.88
2017-03-25T01:20:45.740Z,1012.71
2017-03-25T01:21:07.467Z,1012.80
2017-03-25T01:21:34.011Z,1012.74
2017-03-25T01:21:55.736Z,1012.76
2017-03-25T01:22:17.454Z,1012.74
2017-03-25T01:22:43.940Z,1012.80
2017-03-25T01:23:05.763Z,1012.95
2017-03-25T01:23:27.505Z,1012.99
2017-03-25T01:23:49.217Z,1013.03
2017-03-25T01:24:10.915Z,1013.04
2017-03-25T01:24:32.615Z,1012.80
2017-03-25T01:24:54.340Z,1012.88
2017-03-25T01:25:16.346Z,1013.47
2017-03-25T01:26:14.677Z,1012.88
2017-03-25T01:26:36.484Z,1013.27
2017-03-25T01:27:30.460Z,1013.20
2017-03-25T01:27:56.969Z,1013.66
2017-03-25T01:28:18.700Z,1013.19
2017-03-25T01:28:40.418Z,1012.91
2017-03-25T01:29:35.487Z,1012.89
2017-03-25T01:30:01.865Z,1012.52
2017-03-25T01:30:28.579Z,1012.69
2017-03-25T01:30:54.923Z,1012.57
2017-03-25T01:32:51.798Z,1012.88
2017-03-25T01:33:13.503Z,1013.00
2017-03-25T01:33:35.218Z,1012.69
2017-03-25T01:33:56.908Z,1013.02
2017-03-25T01:34:23.373Z,1012.82
2017-03-25T01:34:46.082Z,1012.74
2017-03-25T01:35:07.778Z,1013.03
2017-03-25T01:35:29.505Z,1012.65
2017-03-25T01:35:51.234Z,1012.73
2017-03-25T01:36:12.993Z,1012.83
2017-03-25T01:36:34.728Z,1012.93
2017-03-25T01:36:56.448Z,1012.85
2017-03-25T01:37:18.170Z,1012.88
2017-03-25T01:37:39.896Z,1012.92
2017-03-25T01:38:01.626Z,1012.63
2017-03-25T01:38:23.349Z,1012.66
2017-03-25T01:38:45.081Z,1012.77
2017-03-25T01:39:06.801Z,1012.81
2017-03-25T01:39:33.319Z,1012.69
2017-03-25T01:39:55.061Z,1012.92
2017-03-25T01:40:57.578Z,1013.02
2017-03-25T01:41:19.294Z,1012.85
2017-03-25T01:41:41.048Z,1012.67
2017-03-25T01:42:02.766Z,1012.67
2017-03-25T01:42:24.490Z,1012.66
2017-03-25T01:42:46.213Z,1012.70
2017-03-25T01:43:07.970Z,1012.53
2017-03-25T01:43:29.700Z,1012.61
2017-03-25T01:43:51.554Z,1012.59
2017-03-25T01:44:13.279Z,1012.60
2017-03-25T01:44:35.008Z,1012.80
2017-03-25T01:44:56.734Z,1012.72
2017-03-25T01:45:23.247Z,1012.79
2017-03-25T01:45:45.001Z,1012.75
2017-03-25T01:46:06.730Z,1012.81
2017-03-25T01:46:59.760Z,1012.78
2017-03-25T01:47:21.483Z,1012.57
2017-03-25T01:48:14.513Z,1012.68
2017-03-25T01:48:36.231Z,1012.77
2017-03-25T01:48:57.983Z,1012.71
2017-03-25T01:49:19.697Z,1012.56
2017-03-25T01:49:41.422Z,1012.59
2017-03-25T01:50:03.150Z,1012.72
2017-03-25T01:50:24.874Z,1012.73
2017-03-25T01:50:46.634Z,1012.72
2017-03-25T01:51:08.374Z,1012.66
2017-03-25T01:51:30.113Z,1012.55
2017-03-25T01:51:51.872Z,1012.63
2017-03-25T01:52:13.622Z,1012.56
2017-03-25T01:52:35.347Z,1012.68
2017-03-25T01:53:01.891Z,1012.71
2017-03-25T01:53:23.867Z,1012.63
2017-03-25T01:53:45.697Z,1012.66
2017-03-25T01:54:44.342Z,1012.73
2017-03-25T01:55:46.946Z,1012.81
2017-03-25T01:56:08.844Z,1012.75
2017-03-25T01:56:32.898Z,1012.52
2017-03-25T01:56:54.761Z,1012.57
2017-03-25T01:57:16.612Z,1012.70
2017-03-25T01:57:38.407Z,1012.61
2017-03-25T01:58:00.145Z,1012.59
2017-03-25T01:58:22.021Z,1012.67
2017-03-25T01:58:43.901Z,1012.88
2017-03-25T01:59:05.693Z,1012.56
2017-03-25T01:59:29.866Z,1012.79
2017-03-25T01:59:51.693Z,1012.56
2017-03-25T02:00:13.433Z,1012.83
2017-03-25T02:00:35.284Z,1012.97
2017-03-25T02:00:57.057Z,1013.03
2017-03-25T02:01:20.934Z,1012.63
2017-03-25T02:01:47.596Z,1012.75
2017-03-25T02:02:40.764Z,1012.59
2017-03-25T02:03:44.056Z,1013.05
2017-03-25T02:04:06.148Z,1012.87
2017-03-25T02:04:28.023Z,1012.85
2017-03-25T02:04:49.853Z,1013.12
2017-03-25T02:05:11.582Z,1012.78
2017-03-25T02:05:33.410Z,1012.65
2017-03-25T02:05:55.124Z,1012.54
2017-03-25T02:06:16.883Z,1012.71
2017-03-25T02:06:38.674Z,1012.67
2017-03-25T02:07:00.470Z,1012.82
2017-03-25T02:07:22.240Z,1012.86
2017-03-25T02:07:44.079Z,1012.68
2017-03-25T02:08:05.848Z,1012.89
2017-03-25T02:08:27.619Z,1012.71
2017-03-25T02:08:49.424Z,1012.72
2017-03-25T02:09:11.178Z,1012.67
2017-03-25T02:09:33.063Z,1012.74
2017-03-25T02:09:54.824Z,1012.74
2017-03-25T02:10:16.579Z,1012.85
2017-03-25T02:10:38.583Z,1012.95
2017-03-25T02:11:00.378Z,1012.70
2017-03-25T02:11:24.463Z,1012.75
2017-03-25T02:11:46.183Z,1012.78
2017-03-25T02:12:07.924Z,1012.81
2017-03-25T02:12:29.673Z,1012.76
2017-03-25T02:12:51.439Z,1012.81
2017-03-25T02:13:13.389Z,1012.96
2017-03-25T02:13:35.271Z,1012.71
2017-03-25T02:13:57.070Z,1012.65
2017-03-25T02:14:21.629Z,1012.63
2017-03-25T02:14:43.387Z,1012.80
2017-03-25T02:15:05.358Z,1012.57
2017-03-25T02:15:27.055Z,1012.83
2017-03-25T02:15:48.824Z,1012.96
2017-03-25T02:16:10.634Z,1012.75
2017-03-25T02:16:32.410Z,1012.81
2017-03-25T02:16:54.406Z,1012.74
2017-03-25T02:17:16.452Z,1012.56
2017-03-25T02:17:38.187Z,1012.76
2017-03-25T02:17:59.917Z,1012.95
2017-03-25T02:18:21.784Z,1012.53
2017-03-25T02:18:43.632Z,1012.75
2017-03-25T02:19:05.515Z,1012.66
2017-03-25T02:19:27.305Z,1012.94
2017-03-25T02:19:53.671Z,1012.72
2017-03-25T02:20:41.987Z,1012.47
2017-03-25T02:21:03.678Z,1012.58
2017-03-25T02:21:25.441Z,1012.75
2017-03-25T02:21:47.206Z,1012.73
2017-03-25T02:22:09.033Z,1012.65
2017-03-25T02:22:38.148Z,1012.57
2017-03-25T02:23:00.104Z,1012.75
2017-03-25T02:23:21.942Z,1012.65
2017-03-25T02:23:43.790Z,1012.77
2017-03-25T02:24:05.873Z,1012.54
2017-03-25T02:24:27.867Z,1012.74
2017-03-25T02:24:49.643Z,1012.81
2017-03-25T02:25:11.489Z,1013.10
2017-03-25T02:25:33.267Z,1012.87
2017-03-25T02:25:55.083Z,1012.64
2017-03-25T02:26:16.938Z,1012.63
2017-03-25T02:26:38.962Z,1012.75
2017-03-25T02:27:00.788Z,1012.63
2017-03-25T02:27:22.572Z,1012.62
2017-03-25T02:27:44.376Z,1012.71
2017-03-25T02:28:06.113Z,1012.75
2017-03-25T02:28:27.964Z,1012.72
2017-03-25T02:28:49.721Z,1012.80
2017-03-25T02:29:11.473Z,1012.69
2017-03-25T02:29:33.228Z,1012.62
2017-03-25T02:29:55.012Z,1012.61
2017-03-25T02:30:19.258Z,1012.66
2017-03-25T02:30:41.190Z,1012.89
2017-03-25T02:31:02.930Z,1012.62
2017-03-25T02:31:24.716Z,1012.83
2017-03-25T02:31:46.570Z,1012.70
2017-03-25T02:32:08.435Z,1012.54
2017-03-25T02:32:30.269Z,1012.62
2017-03-25T02:32:52.022Z,1012.59
2017-03-25T02:33:13.872Z,1012.69
2017-03-25T02:33:35.660Z,1012.67
2017-03-25T02:33:57.425Z,1012.57
2017-03-25T02:34:22.111Z,1012.56
2017-03-25T02:34:46.935Z,1012.61
2017-03-25T02:35:08.998Z,1012.50
2017-03-25T02:35:30.811Z,1012.61
2017-03-25T02:35:54.871Z,1012.64
2017-03-25T02:36:16.612Z,1012.72
2017-03-25T02:36:38.388Z,1012.58
2017-03-25T02:37:00.306Z,1012.53
2017-03-25T02:37:22.156Z,1012.57
2017-03-25T02:37:43.945Z,1012.67
2017-03-25T02:38:05.832Z,1012.67
2017-03-25T02:38:27.833Z,1012.79
2017-03-25T02:38:52.631Z,1012.79
2017-03-25T02:39:14.501Z,1012.54
2017-03-25T02:39:36.535Z,1012.61
2017-03-25T02:39:58.421Z,1012.44
2017-03-25T02:40:20.648Z,1012.55
2017-03-25T02:40:42.514Z,1012.46
2017-03-25T02:41:04.735Z,1012.43
2017-03-25T02:41:26.742Z,1012.67
2017-03-25T02:41:48.586Z,1012.52
2017-03-25T02:42:10.362Z,1012.52
2017-03-25T02:42:32.201Z,1012.45
2017-03-25T02:42:54.004Z,1012.61
2017-03-25T02:43:15.748Z,1012.45
2017-03-25T02:43:37.481Z,1012.61
2017-03-25T02:43:59.352Z,1012.64
2017-03-25T02:45:01.946Z,1012.74
2017-03-25T02:45:28.592Z,1012.55
2017-03-25T02:45:55.058Z,1012.38
2017-03-25T02:46:16.792Z,1012.43
2017-03-25T02:46:43.423Z,1012.47
2017-03-25T02:47:05.080Z,1012.58
2017-03-25T02:47:58.232Z,1012.73
2017-03-25T02:48:24.805Z,1012.50
2017-03-25T02:48:46.639Z,1012.55
2017-03-25T02:50:12.190Z,1012.50
2017-03-25T02:51:11.390Z,1012.56
2017-03-25T02:51:33.085Z,1012.66
2017-03-25T02:51:55.038Z,1012.39
2017-03-25T02:52:16.798Z,1012.46
2017-03-25T02:52:41.339Z,1012.63
2017-03-25T02:53:03.350Z,1012.78
2017-03-25T02:53:25.241Z,1012.76
2017-03-25T02:53:47.077Z,1012.57
2017-03-25T02:54:08.879Z,1012.49
2017-03-25T02:54:33.010Z,1012.58
2017-03-25T02:54:54.774Z,1012.74
2017-03-25T02:55:16.721Z,1012.51
2017-03-25T02:55:38.447Z,1012.57
2017-03-25T02:56:00.249Z,1012.53
2017-03-25T02:56:22.073Z,1012.63
2017-03-25T02:56:44.039Z,1012.58
2017-03-25T02:57:47.620Z,1012.81
2017-03-25T02:58:53.110Z,1012.67
2017-03-25T02:59:14.667Z,1012.59
2017-03-25T02:59:36.391Z,1012.46
2017-03-25T03:00:01.147Z,1012.56
2017-03-25T03:00:22.957Z,1012.64
2017-03-25T03:00:44.690Z,1012.70
2017-03-25T03:01:06.431Z,1012.57
2017-03-25T03:01:28.158Z,1012.81
2017-03-25T03:01:50.001Z,1012.57
2017-03-25T03:02:14.918Z,1012.79
2017-03-25T03:02:36.720Z,1012.63
2017-03-25T03:02:58.618Z,1012.58
2017-03-25T03:03:20.698Z,1012.67
2017-03-25T03:03:42.455Z,1012.42
2017-03-25T03:04:04.188Z,1012.62
2017-03-25T03:04:28.736Z,1012.60
2017-03-25T03:04:50.560Z,1012.58
2017-03-25T03:05:12.282Z,1012.70
2017-03-25T03:05:34.080Z,1012.56
2017-03-25T03:05:55.961Z,1012.55
2017-03-25T03:06:17.679Z,1012.68
2017-03-25T03:06:39.476Z,1012.56
2017-03-25T03:07:01.214Z,1012.56
2017-03-25T03:07:22.945Z,1012.55
2017-03-25T03:07:49.453Z,1012.57
2017-03-25T03:08:14.184Z,1012.60
2017-03-25T03:08:35.972Z,1013.04
2017-03-25T03:09:29.059Z,1012.63
2017-03-25T03:09:50.799Z,1012.45
2017-03-25T03:10:43.806Z,1012.70
2017-03-25T03:11:05.564Z,1012.64
2017-03-25T03:11:32.144Z,1012.91
2017-03-25T03:11:53.934Z,1012.68
2017-03-25T03:12:15.677Z,1012.53
2017-03-25T03:12:37.460Z,1012.32
2017-03-25T03:12:59.253Z,1012.50
2017-03-25T03:13:21.028Z,1012.65
2017-03-25T03:13:42.787Z,1012.57
2017-03-25T03:14:04.549Z,1012.66
2017-03-25T03:14:26.270Z,1012.50
2017-03-25T03:14:47.995Z,1012.58
2017-03-25T03:15:09.787Z,1012.46
2017-03-25T03:15:31.523Z,1012.59
2017-03-25T03:15:53.335Z,1012.59
2017-03-25T03:16:15.043Z,1012.49
2017-03-25T03:16:36.774Z,1012.44
2017-03-25T03:16:58.555Z,1012.63
2017-03-25T03:17:20.331Z,1012.74
2017-03-25T03:17:42.081Z,1012.60
2017-03-25T03:18:03.817Z,1012.32
2017-03-25T03:18:25.614Z,1012.35
2017-03-25T03:18:47.394Z,1012.34
2017-03-25T03:19:09.129Z,1012.63
2017-03-25T03:19:30.906Z,1012.46
2017-03-25T03:19:52.674Z,1012.62
2017-03-25T03:20:14.446Z,1012.66
2017-03-25T03:20:36.210Z,1012.52
2017-03-25T03:20:57.916Z,1012.60
2017-03-25T03:21:19.654Z,1012.46
2017-03-25T03:21:41.436Z,1012.48
2017-03-25T03:22:03.148Z,1012.39
2017-03-25T03:22:24.888Z,1012.48
2017-03-25T03:22:46.653Z,1012.37
2017-03-25T03:23:08.455Z,1012.47
2017-03-25T03:23:30.238Z,1012.38
2017-03-25T03:23:51.960Z,1012.75
2017-03-25T03:24:13.693Z,1012.40
2017-03-25T03:24:35.424Z,1012.36
2017-03-25T03:24:57.209Z,1012.50
2017-03-25T03:25:18.947Z,1012.30
2017-03-25T03:25:40.669Z,1012.24
2017-03-25T03:26:33.698Z,1012.44
2017-03-25T03:27:00.258Z,1012.39
2017-03-25T03:27:21.988Z,1012.36
2017-03-25T03:27:48.493Z,1012.27
2017-03-25T03:28:10.240Z,1012.39
2017-03-25T03:28:32.000Z,1012.43
2017-03-25T03:28:53.844Z,1012.32
2017-03-25T03:29:15.638Z,1012.65
2017-03-25T03:29:37.399Z,1012.60
2017-03-25T03:29:59.115Z,1012.37
2017-03-25T03:30:20.863Z,1012.38
2017-03-25T03:30:42.614Z,1012.46
2017-03-25T03:31:04.387Z,1012.34
2017-03-25T03:31:26.142Z,1012.40
2017-03-25T03:31:47.865Z,1012.39
2017-03-25T03:32:09.614Z,1012.56
2017-03-25T03:32:31.526Z,1012.37
2017-03-25T03:32:53.366Z,1012.38
2017-03-25T03:33:15.117Z,1012.43
2017-03-25T03:33:36.872Z,1012.46
2017-03-25T03:34:29.886Z,1012.31
2017-03-25T03:34:51.592Z,1012.33
2017-03-25T03:35:18.139Z,1012.74
2017-03-25T03:35:39.877Z,1012.50
2017-03-25T03:36:06.377Z,1012.30
2017-03-25T03:36:28.104Z,1012.42
2017-03-25T03:37:21.098Z,1012.37
2017-03-25T03:38:14.096Z,1012.45
2017-03-25T03:39:07.162Z,1012.60
2017-03-25T03:40:09.744Z,1012.42
2017-03-25T03:40:31.543Z,1012.46
2017-03-25T03:40:53.280Z,1012.44
2017-03-25T03:41:15.019Z,1012.33
2017-03-25T03:41:36.781Z,1012.65
2017-03-25T03:41:58.538Z,1012.57
2017-03-25T03:42:20.318Z,1012.54
2017-03-25T03:42:42.071Z,1012.33
2017-03-25T03:43:03.835Z,1012.44
2017-03-25T03:43:25.574Z,1012.30
2017-03-25T03:43:47.375Z,1012.34
2017-03-25T03:44:09.125Z,1012.38
2017-03-25T03:44:30.887Z,1012.34
2017-03-25T03:45:30.255Z,1012.62
2017-03-25T03:47:40.177Z,1012.65
2017-03-25T03:48:01.870Z,1012.43
2017-03-25T03:48:24.579Z,1012.26
2017-03-25T03:48:46.303Z,1012.30
2017-03-25T03:49:08.023Z,1012.40
2017-03-25T03:49:29.729Z,1012.35
2017-03-25T03:49:51.524Z,1012.50
2017-03-25T03:50:13.262Z,1012.67
2017-03-25T03:50:35.206Z,1012.57
2017-03-25T03:50:57.371Z,1012.51
2017-03-25T03:51:19.093Z,1012.31
2017-03-25T03:51:40.842Z,1012.50
2017-03-25T03:52:02.700Z,1012.23
2017-03-25T03:52:24.481Z,1012.42
2017-03-25T03:52:46.301Z,1012.57
2017-03-25T03:53:08.031Z,1012.57
2017-03-25T03:53:29.781Z,1012.36
2017-03-25T03:53:51.513Z,1012.21
2017-03-25T03:54:13.330Z,1012.35
2017-03-25T03:54:35.049Z,1012.58
2017-03-25T03:54:56.808Z,1012.50
2017-03-25T03:55:18.559Z,1012.45
2017-03-25T03:55:40.282Z,1012.35
2017-03-25T03:56:02.053Z,1012.40
2017-03-25T03:56:23.783Z,1012.42
2017-03-25T03:56:45.547Z,1012.15
2017-03-25T03:57:12.044Z,1012.52
2017-03-25T03:57:33.955Z,1012.96
2017-03-25T03:57:55.667Z,1012.31
2017-03-25T03:58:17.388Z,1012.42
2017-03-25T03:58:39.085Z,1012.45
2017-03-25T03:59:00.835Z,1012.35
2017-03-25T03:59:22.589Z,1012.16
2017-03-25T03:59:44.371Z,1012.42
2017-03-25T04:00:06.089Z,1012.38
2017-03-25T04:00:27.824Z,1012.63
2017-03-25T04:00:49.587Z,1012.30
2017-03-25T04:01:11.313Z,1012.20
2017-03-25T04:01:33.045Z,1012.37
2017-03-25T04:01:54.725Z,1012.36
2017-03-25T04:02:16.451Z,1012.16
2017-03-25T04:02:38.166Z,1012.41
2017-03-25T04:02:59.911Z,1012.47
2017-03-25T04:03:21.626Z,1012.43
2017-03-25T04:03:43.381Z,1012.49
2017-03-25T04:04:05.129Z,1012.32
2017-03-25T04:04:26.941Z,1012.50
2017-03-25T04:04:48.691Z,1012.41
2017-03-25T04:05:10.445Z,1012.44
2017-03-25T04:05:32.158Z,1012.32
2017-03-25T04:05:53.877Z,1012.23
2017-03-25T04:06:15.591Z,1012.35
2017-03-25T04:06:37.319Z,1012.43
2017-03-25T04:06:59.045Z,1012.39
2017-03-25T04:07:20.903Z,1012.30
2017-03-25T04:08:19.325Z,1012.23
2017-03-25T04:08:41.029Z,1012.30
2017-03-25T04:09:02.784Z,1012.60
2017-03-25T04:09:24.503Z,1012.29
2017-03-25T04:09:46.228Z,1012.28
2017-03-25T04:11:37.072Z,1012.46
2017-03-25T04:12:30.097Z,1012.52
2017-03-25T04:12:51.819Z,1012.32
2017-03-25T04:13:13.618Z,1012.40
2017-03-25T04:13:35.371Z,1012.14
2017-03-25T04:13:57.108Z,1012.35
2017-03-25T04:14:18.857Z,1012.18
2017-03-25T04:14:40.659Z,1012.25
2017-03-25T04:15:02.382Z,1012.24
2017-03-25T04:15:24.130Z,1012.30
2017-03-25T04:15:45.838Z,1012.32
2017-03-25T04:16:12.324Z,1012.39
2017-03-25T04:16:34.031Z,1012.30
2017-03-25T04:17:37.482Z,1012.24
2017-03-25T04:18:07.530Z,1012.09
2017-03-25T04:18:29.315Z,1012.25
2017-03-25T04:18:59.092Z,1012.29
2017-03-25T04:20:00.320Z,1012.13
2017-03-25T04:20:37.442Z,1012.46
2017-03-25T04:23:58.709Z,1012.44
2017-03-25T04:24:20.527Z,1012.52
2017-03-25T04:24:42.316Z,1012.30
2017-03-25T04:25:07.100Z,1012.44
2017-03-25T04:25:32.030Z,1012.48
2017-03-25T04:25:54.610Z,1012.25
2017-03-25T04:26:19.722Z,1012.36
2017-03-25T04:26:46.449Z,1012.20
2017-03-25T04:27:16.741Z,1012.22
2017-03-25T04:28:23.743Z,1012.20
2017-03-25T04:28:45.517Z,1012.32
2017-03-25T04:29:16.817Z,1012.10
2017-03-25T04:29:38.637Z,1012.24
2017-03-25T04:30:01.458Z,1012.36
2017-03-25T04:30:31.056Z,1012.30
2017-03-25T04:31:02.158Z,1012.46
2017-03-25T04:31:33.505Z,1012.36
2017-03-25T04:32:36.131Z,1012.26
2017-03-25T04:33:00.134Z,1012.32
2017-03-25T04:36:02.056Z,1012.27
2017-03-25T04:38:35.305Z,1012.32
2017-03-25T04:39:42.033Z,1012.21
2017-03-25T04:40:44.558Z,1012.15
2017-03-25T04:41:11.889Z,1012.25
2017-03-25T04:42:23.680Z,1012.17
2017-03-25T04:42:45.416Z,1012.37
2017-03-25T04:43:16.520Z,1012.35
2017-03-25T04:43:38.349Z,1012.10
2017-03-25T04:44:03.672Z,1012.25
2017-03-25T04:44:38.066Z,1012.26
2017-03-25T04:45:02.845Z,1012.18
2017-03-25T04:45:27.671Z,1012.22
2017-03-25T04:47:07.809Z,1012.18
2017-03-25T04:47:40.175Z,1012.11
2017-03-25T04:49:03.302Z,1012.30
2017-03-25T04:49:34.897Z,1012.26
2017-03-25T04:50:03.199Z,1012.46
2017-03-25T04:50:32.384Z,1012.28
2017-03-25T04:51:01.446Z,1012.40
2017-03-25T04:52:04.022Z,1012.20
2017-03-25T04:52:30.845Z,1012.25
2017-03-25T04:52:53.049Z,1012.29
2017-03-25T04:53:46.417Z,1012.22
2017-03-25T04:54:13.101Z,1012.43
2017-03-25T04:54:37.695Z,1012.31
2017-03-25T04:55:16.627Z,1012.45
2017-03-25T04:55:43.981Z,1012.26
2017-03-25T04:56:11.367Z,1012.42
2017-03-25T04:56:40.744Z,1012.29
2017-03-25T04:57:02.947Z,1012.34
2017-03-25T04:57:30.449Z,1012.27
2017-03-25T04:57:52.813Z,1012.22
2017-03-25T04:58:17.696Z,1012.28
2017-03-25T04:59:48.718Z,1012.33
2017-03-25T05:00:15.587Z,1012.24
2017-03-25T05:00:54.575Z,1012.42
2017-03-25T05:01:24.952Z,1012.37
2017-03-25T05:01:47.868Z,1012.28
2017-03-25T05:02:19.138Z,1012.30
2017-03-25T05:02:48.580Z,1012.16
2017-03-25T05:03:14.386Z,1012.38
2017-03-25T05:04:12.198Z,1012.37
2017-03-25T05:04:38.749Z,1012.30
2017-03-25T05:05:46.188Z,1012.47
2017-03-25T05:06:07.919Z,1012.26
2017-03-25T05:07:06.840Z,1012.47
2017-03-25T05:09:25.062Z,1012.36
2017-03-25T05:11:03.484Z,1012.19
2017-03-25T05:12:04.794Z,1012.55
2017-03-25T05:13:03.443Z,1012.26
2017-03-25T05:13:35.918Z,1012.36
2017-03-25T05:15:23.441Z,1012.33
2017-03-25T05:15:48.821Z,1012.17
2017-03-25T05:16:15.979Z,1012.28
2017-03-25T05:16:48.528Z,1012.87
2017-03-25T05:17:13.752Z,1012.61
2017-03-25T05:18:12.475Z,1012.28
2017-03-25T05:19:17.953Z,1011.94
2017-03-25T05:19:49.210Z,1012.33
2017-03-25T05:20:11.448Z,1012.39
2017-03-25T05:21:05.048Z,1012.29
2017-03-25T05:21:56.691Z,1012.17
2017-03-25T05:22:53.301Z,1012.39
2017-03-25T05:24:05.377Z,1012.35
2017-03-25T05:24:27.086Z,1012.30
2017-03-25T05:25:59.246Z,1012.44
2017-03-25T05:26:21.021Z,1012.30
2017-03-25T05:26:47.524Z,1012.50
2017-03-25T05:27:14.424Z,1012.30
2017-03-25T05:27:40.309Z,1012.39
2017-03-25T05:28:07.191Z,1012.48
2017-03-25T05:28:34.323Z,1012.22
2017-03-25T05:29:36.879Z,1012.50
2017-03-25T05:29:58.573Z,1012.30
2017-03-25T05:30:57.014Z,1012.43
2017-03-25T05:31:23.492Z,1012.40
2017-03-25T05:31:45.191Z,1012.57
2017-03-25T05:32:06.993Z,1012.26
2017-03-25T05:32:28.699Z,1012.32
2017-03-25T05:32:50.444Z,1012.46
2017-03-25T05:33:12.103Z,1012.30
2017-03-25T05:33:33.899Z,1012.42
2017-03-25T05:33:55.611Z,1012.46
2017-03-25T05:34:17.303Z,1012.42
2017-03-25T05:34:39.011Z,1012.42
2017-03-25T05:35:05.491Z,1012.66
2017-03-25T05:35:27.284Z,1012.33
2017-03-25T05:35:48.991Z,1012.30
2017-03-25T05:36:51.501Z,1012.25
2017-03-25T05:37:13.243Z,1012.46
2017-03-25T05:37:35.012Z,1012.42
2017-03-25T05:37:56.798Z,1012.52
2017-03-25T05:38:18.506Z,1012.42
2017-03-25T05:38:40.382Z,1012.35
2017-03-25T05:39:11.644Z,1012.62
2017-03-25T05:39:33.415Z,1012.47
2017-03-25T05:40:26.529Z,1012.39
2017-03-25T05:40:48.227Z,1012.53
2017-03-25T05:41:09.927Z,1012.36
2017-03-25T05:41:31.722Z,1012.36
2017-03-25T05:42:24.697Z,1012.45
2017-03-25T05:42:51.178Z,1012.53
2017-03-25T05:43:12.989Z,1012.61
2017-03-25T05:43:39.481Z,1012.49
2017-03-25T05:44:01.181Z,1012.56